sensor_id;sensor_type;location;lat;lon;timestamp;temperature;humidity
75380;HTU21D;65641;44.714;37.756;2023-06-10T00:00:08;23.14;56.90
75380;HTU21D;65641;44.714;37.756;2023-06-10T00:01:15;23.14;56.96
75380;HTU21D;65641;44.714;37.756;2023-06-10T00:02:18;23.14;56.97
75380;HTU21D;65641;44.714;37.756;2023-06-10T00:03:22;23.14;56.95
75380;HTU21D;65641;44.714;37.756;2023-06-10T00:04:27;23.13;56.93
75380;HTU21D;65641;44.714;37.756;2023-06-10T00:05:31;23.12;57.01
75380;HTU21D;65641;44.714;37.756;2023-06-10T00:06:34;23.13;57.03
75380;HTU21D;65641;44.714;37.756;2023-06-10T00:07:41;23.13;57.01
75380;HTU21D;65641;44.714;37.756;2023-06-10T00:08:44;23.11;57.06
75380;HTU21D;65641;44.714;37.756;2023-06-10T00:09:50;23.12;57.00
75380;HTU21D;65641;44.714;37.756;2023-06-10T00:10:54;23.12;57.00
75380;HTU21D;65641;44.714;37.756;2023-06-10T00:11:57;23.12;56.99
75380;HTU21D;65641;44.714;37.756;2023-06-10T00:13:04;23.12;56.96
75380;HTU21D;65641;44.714;37.756;2023-06-10T00:14:10;23.11;56.99
75380;HTU21D;65641;44.714;37.756;2023-06-10T00:15:14;23.12;56.96
75380;HTU21D;65641;44.714;37.756;2023-06-10T00:16:17;23.11;57.00
75380;HTU21D;65641;44.714;37.756;2023-06-10T00:17:21;23.10;56.89
75380;HTU21D;65641;44.714;37.756;2023-06-10T00:18:27;23.11;56.96
75380;HTU21D;65641;44.714;37.756;2023-06-10T00:19:30;23.10;56.98
75380;HTU21D;65641;44.714;37.756;2023-06-10T00:20:34;23.09;57.03
75380;HTU21D;65641;44.714;37.756;2023-06-10T00:21:39;23.09;57.00
75380;HTU21D;65641;44.714;37.756;2023-06-10T00:22:43;23.08;56.99
75380;HTU21D;65641;44.714;37.756;2023-06-10T00:23:49;23.09;57.06
75380;HTU21D;65641;44.714;37.756;2023-06-10T00:24:52;23.06;57.02
75380;HTU21D;65641;44.714;37.756;2023-06-10T00:25:59;23.08;57.08
75380;HTU21D;65641;44.714;37.756;2023-06-10T00:27:03;23.06;57.07
75380;HTU21D;65641;44.714;37.756;2023-06-10T00:28:06;23.06;56.99
75380;HTU21D;65641;44.714;37.756;2023-06-10T00:29:10;23.05;57.00
75380;HTU21D;65641;44.714;37.756;2023-06-10T00:30:13;23.06;57.00
75380;HTU21D;65641;44.714;37.756;2023-06-10T00:31:17;23.05;57.02
75380;HTU21D;65641;44.714;37.756;2023-06-10T00:32:21;23.05;57.04
75380;HTU21D;65641;44.714;37.756;2023-06-10T00:33:24;23.03;57.03
75380;HTU21D;65641;44.714;37.756;2023-06-10T00:34:28;23.02;57.04
75380;HTU21D;65641;44.714;37.756;2023-06-10T00:35:34;23.02;57.04
75380;HTU21D;65641;44.714;37.756;2023-06-10T00:36:37;23.00;57.04
75380;HTU21D;65641;44.714;37.756;2023-06-10T00:37:41;23.00;57.09
75380;HTU21D;65641;44.714;37.756;2023-06-10T00:38:44;22.99;57.17
75380;HTU21D;65641;44.714;37.756;2023-06-10T00:39:48;22.98;57.13
75380;HTU21D;65641;44.714;37.756;2023-06-10T00:40:51;22.96;57.16
75380;HTU21D;65641;44.714;37.756;2023-06-10T00:41:55;22.96;57.18
75380;HTU21D;65641;44.714;37.756;2023-06-10T00:42:58;22.94;57.19
75380;HTU21D;65641;44.714;37.756;2023-06-10T00:44:02;22.94;57.18
75380;HTU21D;65641;44.714;37.756;2023-06-10T00:45:06;22.93;57.16
75380;HTU21D;65641;44.714;37.756;2023-06-10T00:46:12;22.91;57.15
75380;HTU21D;65641;44.714;37.756;2023-06-10T00:47:17;22.91;57.19
75380;HTU21D;65641;44.714;37.756;2023-06-10T00:48:21;22.87;57.22
75380;HTU21D;65641;44.714;37.756;2023-06-10T00:49:25;22.87;57.28
75380;HTU21D;65641;44.714;37.756;2023-06-10T00:50:29;22.85;57.33
75380;HTU21D;65641;44.714;37.756;2023-06-10T00:51:34;22.84;57.37
75380;HTU21D;65641;44.714;37.756;2023-06-10T00:52:39;22.82;57.34
75380;HTU21D;65641;44.714;37.756;2023-06-10T00:53:44;22.82;57.29
75380;HTU21D;65641;44.714;37.756;2023-06-10T00:54:48;22.80;57.38
75380;HTU21D;65641;44.714;37.756;2023-06-10T00:55:51;22.79;57.40
75380;HTU21D;65641;44.714;37.756;2023-06-10T00:56:56;22.79;57.45
75380;HTU21D;65641;44.714;37.756;2023-06-10T00:57:59;22.76;57.44
75380;HTU21D;65641;44.714;37.756;2023-06-10T00:59:03;22.75;57.44
75380;HTU21D;65641;44.714;37.756;2023-06-10T01:00:07;22.73;57.48
75380;HTU21D;65641;44.714;37.756;2023-06-10T01:01:12;22.75;57.52
75380;HTU21D;65641;44.714;37.756;2023-06-10T01:02:16;22.72;57.45
75380;HTU21D;65641;44.714;37.756;2023-06-10T01:03:20;22.71;57.51
75380;HTU21D;65641;44.714;37.756;2023-06-10T01:04:23;22.70;57.53
75380;HTU21D;65641;44.714;37.756;2023-06-10T01:05:28;22.68;57.58
75380;HTU21D;65641;44.714;37.756;2023-06-10T01:07:55;22.65;57.57
75380;HTU21D;65641;44.714;37.756;2023-06-10T01:09:17;22.66;57.54
75380;HTU21D;65641;44.714;37.756;2023-06-10T01:10:36;22.64;57.62
75380;HTU21D;65641;44.714;37.756;2023-06-10T01:11:46;22.63;57.64
75380;HTU21D;65641;44.714;37.756;2023-06-10T01:12:59;22.61;57.71
75380;HTU21D;65641;44.714;37.756;2023-06-10T01:14:06;22.61;57.56
75380;HTU21D;65641;44.714;37.756;2023-06-10T01:15:10;22.60;57.69
75380;HTU21D;65641;44.714;37.756;2023-06-10T01:16:14;22.57;57.67
75380;HTU21D;65641;44.714;37.756;2023-06-10T01:17:18;22.57;57.69
75380;HTU21D;65641;44.714;37.756;2023-06-10T01:18:22;22.56;57.64
75380;HTU21D;65641;44.714;37.756;2023-06-10T01:19:26;22.55;57.74
75380;HTU21D;65641;44.714;37.756;2023-06-10T01:20:32;22.54;57.75
75380;HTU21D;65641;44.714;37.756;2023-06-10T01:21:37;22.54;57.69
75380;HTU21D;65641;44.714;37.756;2023-06-10T01:22:42;22.53;57.78
75380;HTU21D;65641;44.714;37.756;2023-06-10T01:23:45;22.52;57.78
75380;HTU21D;65641;44.714;37.756;2023-06-10T01:24:49;22.52;57.77
75380;HTU21D;65641;44.714;37.756;2023-06-10T01:26:00;22.52;57.76
75380;HTU21D;65641;44.714;37.756;2023-06-10T01:27:10;22.51;57.80
75380;HTU21D;65641;44.714;37.756;2023-06-10T01:28:36;22.52;57.80
75380;HTU21D;65641;44.714;37.756;2023-06-10T01:29:46;22.50;57.86
75380;HTU21D;65641;44.714;37.756;2023-06-10T01:32:08;22.49;57.91
75380;HTU21D;65641;44.714;37.756;2023-06-10T01:33:16;22.49;57.83
75380;HTU21D;65641;44.714;37.756;2023-06-10T01:34:23;22.48;57.87
75380;HTU21D;65641;44.714;37.756;2023-06-10T01:35:28;22.47;57.89
75380;HTU21D;65641;44.714;37.756;2023-06-10T01:36:33;22.46;57.93
75380;HTU21D;65641;44.714;37.756;2023-06-10T01:37:39;22.44;57.97
75380;HTU21D;65641;44.714;37.756;2023-06-10T01:38:44;22.43;57.95
75380;HTU21D;65641;44.714;37.756;2023-06-10T01:39:49;22.43;57.84
75380;HTU21D;65641;44.714;37.756;2023-06-10T01:40:55;22.43;57.90
75380;HTU21D;65641;44.714;37.756;2023-06-10T01:41:59;22.44;57.90
75380;HTU21D;65641;44.714;37.756;2023-06-10T01:43:05;22.43;57.87
75380;HTU21D;65641;44.714;37.756;2023-06-10T01:44:09;22.44;57.90
75380;HTU21D;65641;44.714;37.756;2023-06-10T01:45:15;22.43;57.89
75380;HTU21D;65641;44.714;37.756;2023-06-10T01:46:19;22.44;57.88
75380;HTU21D;65641;44.714;37.756;2023-06-10T01:47:24;22.43;57.86
75380;HTU21D;65641;44.714;37.756;2023-06-10T01:48:28;22.43;57.87
75380;HTU21D;65641;44.714;37.756;2023-06-10T01:49:31;22.44;57.83
75380;HTU21D;65641;44.714;37.756;2023-06-10T01:50:34;22.44;57.76
75380;HTU21D;65641;44.714;37.756;2023-06-10T01:51:40;22.43;57.77
75380;HTU21D;65641;44.714;37.756;2023-06-10T01:52:43;22.44;57.84
75380;HTU21D;65641;44.714;37.756;2023-06-10T01:53:47;22.43;57.79
75380;HTU21D;65641;44.714;37.756;2023-06-10T01:54:50;22.43;57.82
75380;HTU21D;65641;44.714;37.756;2023-06-10T01:55:54;22.43;57.81
75380;HTU21D;65641;44.714;37.756;2023-06-10T01:56:58;22.43;57.71
75380;HTU21D;65641;44.714;37.756;2023-06-10T01:58:02;22.43;57.77
75380;HTU21D;65641;44.714;37.756;2023-06-10T01:59:05;22.43;57.78
75380;HTU21D;65641;44.714;37.756;2023-06-10T02:00:10;22.46;57.73
75380;HTU21D;65641;44.714;37.756;2023-06-10T02:01:20;22.46;57.75
75380;HTU21D;65641;44.714;37.756;2023-06-10T02:02:24;22.46;57.77
75380;HTU21D;65641;44.714;37.756;2023-06-10T02:03:28;22.46;57.69
75380;HTU21D;65641;44.714;37.756;2023-06-10T02:04:31;22.48;57.65
75380;HTU21D;65641;44.714;37.756;2023-06-10T02:05:37;22.47;57.72
75380;HTU21D;65641;44.714;37.756;2023-06-10T02:06:41;22.47;57.68
75380;HTU21D;65641;44.714;37.756;2023-06-10T02:07:44;22.48;57.64
75380;HTU21D;65641;44.714;37.756;2023-06-10T02:08:48;22.48;57.63
75380;HTU21D;65641;44.714;37.756;2023-06-10T02:09:51;22.48;57.58
75380;HTU21D;65641;44.714;37.756;2023-06-10T02:10:55;22.50;57.57
75380;HTU21D;65641;44.714;37.756;2023-06-10T02:11:58;22.50;57.54
75380;HTU21D;65641;44.714;37.756;2023-06-10T02:13:02;22.49;57.54
75380;HTU21D;65641;44.714;37.756;2023-06-10T02:14:05;22.51;57.55
75380;HTU21D;65641;44.714;37.756;2023-06-10T02:15:09;22.53;57.48
75380;HTU21D;65641;44.714;37.756;2023-06-10T02:16:13;22.53;57.51
75380;HTU21D;65641;44.714;37.756;2023-06-10T02:17:17;22.52;57.44
75380;HTU21D;65641;44.714;37.756;2023-06-10T02:18:21;22.53;57.52
75380;HTU21D;65641;44.714;37.756;2023-06-10T02:19:25;22.55;57.55
75380;HTU21D;65641;44.714;37.756;2023-06-10T02:20:29;22.53;57.53
75380;HTU21D;65641;44.714;37.756;2023-06-10T02:21:33;22.55;57.42
75380;HTU21D;65641;44.714;37.756;2023-06-10T02:22:37;22.55;57.39
75380;HTU21D;65641;44.714;37.756;2023-06-10T02:23:43;22.54;57.45
75380;HTU21D;65641;44.714;37.756;2023-06-10T02:24:47;22.55;57.47
75380;HTU21D;65641;44.714;37.756;2023-06-10T02:25:50;22.56;57.39
75380;HTU21D;65641;44.714;37.756;2023-06-10T02:26:54;22.56;57.39
75380;HTU21D;65641;44.714;37.756;2023-06-10T02:27:58;22.57;57.42
75380;HTU21D;65641;44.714;37.756;2023-06-10T02:29:02;22.56;57.42
75380;HTU21D;65641;44.714;37.756;2023-06-10T02:30:07;22.55;57.45
75380;HTU21D;65641;44.714;37.756;2023-06-10T02:31:13;22.55;57.44
75380;HTU21D;65641;44.714;37.756;2023-06-10T02:32:17;22.55;57.50
75380;HTU21D;65641;44.714;37.756;2023-06-10T02:33:20;22.55;57.51
75380;HTU21D;65641;44.714;37.756;2023-06-10T02:34:25;22.55;57.43
75380;HTU21D;65641;44.714;37.756;2023-06-10T02:35:29;22.55;57.48
75380;HTU21D;65641;44.714;37.756;2023-06-10T02:36:33;22.55;57.41
75380;HTU21D;65641;44.714;37.756;2023-06-10T02:37:38;22.58;57.46
75380;HTU21D;65641;44.714;37.756;2023-06-10T02:38:42;22.60;57.36
75380;HTU21D;65641;44.714;37.756;2023-06-10T02:39:46;22.60;57.37
75380;HTU21D;65641;44.714;37.756;2023-06-10T02:40:50;22.61;57.35
75380;HTU21D;65641;44.714;37.756;2023-06-10T02:41:54;22.61;57.34
75380;HTU21D;65641;44.714;37.756;2023-06-10T02:42:58;22.62;57.34
75380;HTU21D;65641;44.714;37.756;2023-06-10T02:44:02;22.62;57.32
75380;HTU21D;65641;44.714;37.756;2023-06-10T02:45:06;22.63;57.34
75380;HTU21D;65641;44.714;37.756;2023-06-10T02:46:15;22.64;57.31
75380;HTU21D;65641;44.714;37.756;2023-06-10T02:47:20;22.62;57.35
75380;HTU21D;65641;44.714;37.756;2023-06-10T02:48:24;22.62;57.29
75380;HTU21D;65641;44.714;37.756;2023-06-10T02:49:28;22.64;57.33
75380;HTU21D;65641;44.714;37.756;2023-06-10T02:50:32;22.62;57.35
75380;HTU21D;65641;44.714;37.756;2023-06-10T02:52:05;22.63;57.28
75380;HTU21D;65641;44.714;37.756;2023-06-10T02:53:10;22.63;57.22
75380;HTU21D;65641;44.714;37.756;2023-06-10T02:54:17;22.64;57.22
75380;HTU21D;65641;44.714;37.756;2023-06-10T02:55:21;22.65;57.22
75380;HTU21D;65641;44.714;37.756;2023-06-10T02:56:30;22.66;57.22
75380;HTU21D;65641;44.714;37.756;2023-06-10T02:57:37;22.67;57.12
75380;HTU21D;65641;44.714;37.756;2023-06-10T02:58:40;22.67;57.11
75380;HTU21D;65641;44.714;37.756;2023-06-10T02:59:47;22.70;57.02
75380;HTU21D;65641;44.714;37.756;2023-06-10T03:00:50;22.72;57.03
75380;HTU21D;65641;44.714;37.756;2023-06-10T03:01:56;22.75;56.93
75380;HTU21D;65641;44.714;37.756;2023-06-10T03:03:04;22.77;56.81
75380;HTU21D;65641;44.714;37.756;2023-06-10T03:04:17;22.80;56.74
75380;HTU21D;65641;44.714;37.756;2023-06-10T03:05:30;22.85;56.58
75380;HTU21D;65641;44.714;37.756;2023-06-10T03:06:36;22.87;56.53
75380;HTU21D;65641;44.714;37.756;2023-06-10T03:07:51;22.91;56.42
75380;HTU21D;65641;44.714;37.756;2023-06-10T03:08:55;22.94;56.34
75380;HTU21D;65641;44.714;37.756;2023-06-10T03:09:58;23.00;56.21
75380;HTU21D;65641;44.714;37.756;2023-06-10T03:11:02;23.02;56.07
75380;HTU21D;65641;44.714;37.756;2023-06-10T03:12:07;23.08;56.00
75380;HTU21D;65641;44.714;37.756;2023-06-10T03:13:15;23.11;55.94
75380;HTU21D;65641;44.714;37.756;2023-06-10T03:14:20;23.16;55.74
75380;HTU21D;65641;44.714;37.756;2023-06-10T03:15:24;23.18;55.75
75380;HTU21D;65641;44.714;37.756;2023-06-10T03:16:28;23.22;55.60
75380;HTU21D;65641;44.714;37.756;2023-06-10T03:17:34;23.26;55.51
75380;HTU21D;65641;44.714;37.756;2023-06-10T03:18:38;23.29;55.50
75380;HTU21D;65641;44.714;37.756;2023-06-10T03:19:41;23.34;55.29
75380;HTU21D;65641;44.714;37.756;2023-06-10T03:20:45;23.38;55.16
75380;HTU21D;65641;44.714;37.756;2023-06-10T03:22:09;23.43;55.12
75380;HTU21D;65641;44.714;37.756;2023-06-10T03:23:21;23.49;54.93
75380;HTU21D;65641;44.714;37.756;2023-06-10T03:24:25;23.53;54.85
75380;HTU21D;65641;44.714;37.756;2023-06-10T03:25:28;23.56;54.80
75380;HTU21D;65641;44.714;37.756;2023-06-10T03:26:33;23.60;54.70
75380;HTU21D;65641;44.714;37.756;2023-06-10T03:27:37;23.64;54.56
75380;HTU21D;65641;44.714;37.756;2023-06-10T03:28:43;23.67;54.54
75380;HTU21D;65641;44.714;37.756;2023-06-10T03:29:46;23.70;54.44
75380;HTU21D;65641;44.714;37.756;2023-06-10T03:30:51;23.74;54.42
75380;HTU21D;65641;44.714;37.756;2023-06-10T03:31:57;23.76;54.30
75380;HTU21D;65641;44.714;37.756;2023-06-10T03:33:01;23.80;54.25
75380;HTU21D;65641;44.714;37.756;2023-06-10T03:34:05;23.82;54.23
75380;HTU21D;65641;44.714;37.756;2023-06-10T03:35:09;23.82;54.20
75380;HTU21D;65641;44.714;37.756;2023-06-10T03:36:13;23.82;54.24
75380;HTU21D;65641;44.714;37.756;2023-06-10T03:37:17;23.83;54.23
75380;HTU21D;65641;44.714;37.756;2023-06-10T03:38:23;23.84;54.22
75380;HTU21D;65641;44.714;37.756;2023-06-10T03:39:28;23.83;54.26
75380;HTU21D;65641;44.714;37.756;2023-06-10T03:40:34;23.83;54.33
75380;HTU21D;65641;44.714;37.756;2023-06-10T03:41:38;23.82;54.31
75380;HTU21D;65641;44.714;37.756;2023-06-10T03:42:42;23.83;54.37
75380;HTU21D;65641;44.714;37.756;2023-06-10T03:43:49;23.84;54.36
75380;HTU21D;65641;44.714;37.756;2023-06-10T03:44:53;23.85;54.33
75380;HTU21D;65641;44.714;37.756;2023-06-10T03:45:56;23.86;54.39
75380;HTU21D;65641;44.714;37.756;2023-06-10T03:47:00;23.88;54.25
75380;HTU21D;65641;44.714;37.756;2023-06-10T03:48:05;23.89;54.28
75380;HTU21D;65641;44.714;37.756;2023-06-10T03:49:28;23.94;54.23
75380;HTU21D;65641;44.714;37.756;2023-06-10T03:50:36;23.97;54.14
75380;HTU21D;65641;44.714;37.756;2023-06-10T03:51:39;24.01;54.12
75380;HTU21D;65641;44.714;37.756;2023-06-10T03:52:43;24.02;54.04
75380;HTU21D;65641;44.714;37.756;2023-06-10T03:53:49;24.05;54.01
75380;HTU21D;65641;44.714;37.756;2023-06-10T03:54:53;24.09;53.92
75380;HTU21D;65641;44.714;37.756;2023-06-10T03:55:58;24.11;53.87
75380;HTU21D;65641;44.714;37.756;2023-06-10T03:57:02;24.14;53.75
75380;HTU21D;65641;44.714;37.756;2023-06-10T03:58:06;24.19;53.65
75380;HTU21D;65641;44.714;37.756;2023-06-10T03:59:09;24.24;53.57
75380;HTU21D;65641;44.714;37.756;2023-06-10T04:00:14;24.27;53.46
75380;HTU21D;65641;44.714;37.756;2023-06-10T04:01:18;24.31;53.43
75380;HTU21D;65641;44.714;37.756;2023-06-10T04:02:24;24.35;53.32
75380;HTU21D;65641;44.714;37.756;2023-06-10T04:03:28;24.41;53.19
75380;HTU21D;65641;44.714;37.756;2023-06-10T04:04:32;24.44;53.11
75380;HTU21D;65641;44.714;37.756;2023-06-10T04:05:35;24.49;52.96
75380;HTU21D;65641;44.714;37.756;2023-06-10T04:06:39;24.56;52.85
75380;HTU21D;65641;44.714;37.756;2023-06-10T04:07:44;24.61;52.69
75380;HTU21D;65641;44.714;37.756;2023-06-10T04:08:48;24.66;52.54
75380;HTU21D;65641;44.714;37.756;2023-06-10T04:09:51;24.72;52.41
75380;HTU21D;65641;44.714;37.756;2023-06-10T04:10:56;24.77;52.29
75380;HTU21D;65641;44.714;37.756;2023-06-10T04:11:59;24.82;52.19
75380;HTU21D;65641;44.714;37.756;2023-06-10T04:13:03;24.87;52.01
75380;HTU21D;65641;44.714;37.756;2023-06-10T04:14:13;24.92;52.00
75380;HTU21D;65641;44.714;37.756;2023-06-10T04:15:18;24.94;51.89
75380;HTU21D;65641;44.714;37.756;2023-06-10T04:16:22;25.00;51.82
75380;HTU21D;65641;44.714;37.756;2023-06-10T04:17:25;25.05;51.68
75380;HTU21D;65641;44.714;37.756;2023-06-10T04:18:29;25.07;51.64
75380;HTU21D;65641;44.714;37.756;2023-06-10T04:19:37;25.10;51.55
75380;HTU21D;65641;44.714;37.756;2023-06-10T04:20:42;25.15;51.49
75380;HTU21D;65641;44.714;37.756;2023-06-10T04:21:46;25.18;51.39
75380;HTU21D;65641;44.714;37.756;2023-06-10T04:22:49;25.23;51.28
75380;HTU21D;65641;44.714;37.756;2023-06-10T04:23:54;25.27;51.21
75380;HTU21D;65641;44.714;37.756;2023-06-10T04:24:57;25.30;51.16
75380;HTU21D;65641;44.714;37.756;2023-06-10T04:26:03;25.34;51.08
75380;HTU21D;65641;44.714;37.756;2023-06-10T04:27:08;25.37;50.95
75380;HTU21D;65641;44.714;37.756;2023-06-10T04:28:13;25.43;50.88
75380;HTU21D;65641;44.714;37.756;2023-06-10T04:29:18;25.46;50.76
75380;HTU21D;65641;44.714;37.756;2023-06-10T04:30:22;25.49;50.76
75380;HTU21D;65641;44.714;37.756;2023-06-10T04:31:26;25.53;50.70
75380;HTU21D;65641;44.714;37.756;2023-06-10T04:32:31;25.57;50.57
75380;HTU21D;65641;44.714;37.756;2023-06-10T04:33:34;25.62;50.49
75380;HTU21D;65641;44.714;37.756;2023-06-10T04:34:39;25.65;50.41
75380;HTU21D;65641;44.714;37.756;2023-06-10T04:35:43;25.71;50.36
75380;HTU21D;65641;44.714;37.756;2023-06-10T04:36:49;25.75;50.25
75380;HTU21D;65641;44.714;37.756;2023-06-10T04:37:54;25.78;50.19
75380;HTU21D;65641;44.714;37.756;2023-06-10T04:38:58;25.84;50.07
75380;HTU21D;65641;44.714;37.756;2023-06-10T04:40:04;25.91;49.92
75380;HTU21D;65641;44.714;37.756;2023-06-10T04:41:08;25.96;49.84
75380;HTU21D;65641;44.714;37.756;2023-06-10T04:42:12;26.04;49.73
75380;HTU21D;65641;44.714;37.756;2023-06-10T04:43:16;26.09;49.56
75380;HTU21D;65641;44.714;37.756;2023-06-10T04:44:21;26.18;49.37
75380;HTU21D;65641;44.714;37.756;2023-06-10T04:45:25;26.23;49.25
75380;HTU21D;65641;44.714;37.756;2023-06-10T04:46:29;26.31;49.09
75380;HTU21D;65641;44.714;37.756;2023-06-10T04:47:34;26.34;49.08
75380;HTU21D;65641;44.714;37.756;2023-06-10T04:48:40;26.38;48.95
75380;HTU21D;65641;44.714;37.756;2023-06-10T04:49:45;26.41;48.92
75380;HTU21D;65641;44.714;37.756;2023-06-10T04:50:49;26.49;48.82
75380;HTU21D;65641;44.714;37.756;2023-06-10T04:51:53;26.56;48.70
75380;HTU21D;65641;44.714;37.756;2023-06-10T04:52:57;26.64;48.49
75380;HTU21D;65641;44.714;37.756;2023-06-10T04:54:00;26.70;48.41
75380;HTU21D;65641;44.714;37.756;2023-06-10T04:55:07;26.76;48.27
75380;HTU21D;65641;44.714;37.756;2023-06-10T04:56:11;26.82;48.08
75380;HTU21D;65641;44.714;37.756;2023-06-10T04:57:18;26.91;47.93
75380;HTU21D;65641;44.714;37.756;2023-06-10T04:58:23;26.95;47.94
75380;HTU21D;65641;44.714;37.756;2023-06-10T04:59:27;27.04;47.73
75380;HTU21D;65641;44.714;37.756;2023-06-10T05:00:31;27.10;47.62
75380;HTU21D;65641;44.714;37.756;2023-06-10T05:01:34;27.16;47.47
75380;HTU21D;65641;44.714;37.756;2023-06-10T05:02:38;27.22;47.32
75380;HTU21D;65641;44.714;37.756;2023-06-10T05:03:41;27.29;47.18
75380;HTU21D;65641;44.714;37.756;2023-06-10T05:04:45;27.35;47.14
75380;HTU21D;65641;44.714;37.756;2023-06-10T05:05:49;27.41;47.00
75380;HTU21D;65641;44.714;37.756;2023-06-10T05:06:52;27.46;46.92
75380;HTU21D;65641;44.714;37.756;2023-06-10T05:07:56;27.52;46.85
75380;HTU21D;65641;44.714;37.756;2023-06-10T05:09:00;27.58;46.75
75380;HTU21D;65641;44.714;37.756;2023-06-10T05:10:03;27.66;46.51
75380;HTU21D;65641;44.714;37.756;2023-06-10T05:11:07;27.72;46.42
75380;HTU21D;65641;44.714;37.756;2023-06-10T05:12:11;27.78;46.32
75380;HTU21D;65641;44.714;37.756;2023-06-10T05:13:17;27.82;46.29
75380;HTU21D;65641;44.714;37.756;2023-06-10T05:14:21;27.86;46.24
75380;HTU21D;65641;44.714;37.756;2023-06-10T05:15:24;27.90;46.13
75380;HTU21D;65641;44.714;37.756;2023-06-10T05:16:28;27.96;46.06
75380;HTU21D;65641;44.714;37.756;2023-06-10T05:17:31;27.98;46.11
75380;HTU21D;65641;44.714;37.756;2023-06-10T05:18:35;27.99;46.09
75380;HTU21D;65641;44.714;37.756;2023-06-10T05:19:38;28.02;46.02
75380;HTU21D;65641;44.714;37.756;2023-06-10T05:20:42;28.06;46.04
75380;HTU21D;65641;44.714;37.756;2023-06-10T05:21:46;28.08;46.05
75380;HTU21D;65641;44.714;37.756;2023-06-10T05:22:49;28.12;45.96
75380;HTU21D;65641;44.714;37.756;2023-06-10T05:23:53;28.16;45.92
75380;HTU21D;65641;44.714;37.756;2023-06-10T05:24:57;28.23;45.87
75380;HTU21D;65641;44.714;37.756;2023-06-10T05:26:00;28.27;45.77
75380;HTU21D;65641;44.714;37.756;2023-06-10T05:27:04;28.30;45.71
75380;HTU21D;65641;44.714;37.756;2023-06-10T05:28:09;28.35;45.64
75380;HTU21D;65641;44.714;37.756;2023-06-10T05:29:17;28.41;45.61
75380;HTU21D;65641;44.714;37.756;2023-06-10T05:30:23;28.47;45.45
75380;HTU21D;65641;44.714;37.756;2023-06-10T05:31:28;28.54;45.32
75380;HTU21D;65641;44.714;37.756;2023-06-10T05:32:34;28.58;45.28
75380;HTU21D;65641;44.714;37.756;2023-06-10T05:33:39;28.63;45.22
75380;HTU21D;65641;44.714;37.756;2023-06-10T05:34:43;28.69;45.12
75380;HTU21D;65641;44.714;37.756;2023-06-10T05:35:46;28.73;45.05
75380;HTU21D;65641;44.714;37.756;2023-06-10T05:36:52;28.77;45.03
75380;HTU21D;65641;44.714;37.756;2023-06-10T05:37:55;28.80;44.97
75380;HTU21D;65641;44.714;37.756;2023-06-10T05:39:00;28.82;44.95
75380;HTU21D;65641;44.714;37.756;2023-06-10T05:40:04;28.84;44.93
75380;HTU21D;65641;44.714;37.756;2023-06-10T05:41:08;28.85;44.92
75380;HTU21D;65641;44.714;37.756;2023-06-10T05:42:12;28.86;44.91
75380;HTU21D;65641;44.714;37.756;2023-06-10T05:43:15;28.86;44.96
75380;HTU21D;65641;44.714;37.756;2023-06-10T05:44:19;28.86;44.97
75380;HTU21D;65641;44.714;37.756;2023-06-10T05:45:23;28.88;44.96
75380;HTU21D;65641;44.714;37.756;2023-06-10T05:46:26;28.88;45.03
75380;HTU21D;65641;44.714;37.756;2023-06-10T05:47:30;28.89;45.03
75380;HTU21D;65641;44.714;37.756;2023-06-10T05:48:34;28.92;45.03
75380;HTU21D;65641;44.714;37.756;2023-06-10T05:49:37;28.93;45.05
75380;HTU21D;65641;44.714;37.756;2023-06-10T05:50:41;28.91;45.09
75380;HTU21D;65641;44.714;37.756;2023-06-10T05:51:45;28.92;45.12
75380;HTU21D;65641;44.714;37.756;2023-06-10T05:52:49;28.91;45.18
75380;HTU21D;65641;44.714;37.756;2023-06-10T05:53:55;28.92;45.17
75380;HTU21D;65641;44.714;37.756;2023-06-10T05:54:59;28.94;45.13
75380;HTU21D;65641;44.714;37.756;2023-06-10T05:56:04;28.95;45.13
75380;HTU21D;65641;44.714;37.756;2023-06-10T05:57:07;28.95;45.17
75380;HTU21D;65641;44.714;37.756;2023-06-10T05:58:13;28.97;45.19
75380;HTU21D;65641;44.714;37.756;2023-06-10T05:59:17;28.95;45.06
75380;HTU21D;65641;44.714;37.756;2023-06-10T06:00:21;28.98;45.25
75380;HTU21D;65641;44.714;37.756;2023-06-10T06:01:24;28.99;45.24
75380;HTU21D;65641;44.714;37.756;2023-06-10T06:02:28;29.00;45.21
75380;HTU21D;65641;44.714;37.756;2023-06-10T06:03:34;29.01;45.22
75380;HTU21D;65641;44.714;37.756;2023-06-10T06:04:38;29.02;45.22
75380;HTU21D;65641;44.714;37.756;2023-06-10T06:05:42;29.01;45.19
75380;HTU21D;65641;44.714;37.756;2023-06-10T06:06:45;29.02;45.28
75380;HTU21D;65641;44.714;37.756;2023-06-10T06:07:49;29.03;45.15
75380;HTU21D;65641;44.714;37.756;2023-06-10T06:08:55;29.04;45.19
75380;HTU21D;65641;44.714;37.756;2023-06-10T06:09:58;29.05;45.34
75380;HTU21D;65641;44.714;37.756;2023-06-10T06:11:05;29.07;45.25
75380;HTU21D;65641;44.714;37.756;2023-06-10T06:12:08;29.06;45.14
75380;HTU21D;65641;44.714;37.756;2023-06-10T06:13:12;29.06;45.33
75380;HTU21D;65641;44.714;37.756;2023-06-10T06:14:16;29.11;45.22
75380;HTU21D;65641;44.714;37.756;2023-06-10T06:15:20;29.13;45.14
75380;HTU21D;65641;44.714;37.756;2023-06-10T06:16:23;29.12;45.18
75380;HTU21D;65641;44.714;37.756;2023-06-10T06:17:27;29.13;45.27
75380;HTU21D;65641;44.714;37.756;2023-06-10T06:18:30;29.12;45.32
75380;HTU21D;65641;44.714;37.756;2023-06-10T06:19:34;29.14;45.19
75380;HTU21D;65641;44.714;37.756;2023-06-10T06:20:37;29.16;45.12
75380;HTU21D;65641;44.714;37.756;2023-06-10T06:21:41;29.14;45.27
75380;HTU21D;65641;44.714;37.756;2023-06-10T06:22:44;29.15;45.18
75380;HTU21D;65641;44.714;37.756;2023-06-10T06:23:48;29.17;45.16
75380;HTU21D;65641;44.714;37.756;2023-06-10T06:24:52;29.16;45.27
75380;HTU21D;65641;44.714;37.756;2023-06-10T06:25:55;29.19;45.25
75380;HTU21D;65641;44.714;37.756;2023-06-10T06:26:59;29.22;45.29
75380;HTU21D;65641;44.714;37.756;2023-06-10T06:28:02;29.26;45.22
75380;HTU21D;65641;44.714;37.756;2023-06-10T06:29:06;29.30;45.12
75380;HTU21D;65641;44.714;37.756;2023-06-10T06:30:10;29.36;45.07
75380;HTU21D;65641;44.714;37.756;2023-06-10T06:31:16;29.39;45.00
75380;HTU21D;65641;44.714;37.756;2023-06-10T06:32:20;29.46;44.85
75380;HTU21D;65641;44.714;37.756;2023-06-10T06:33:25;29.53;44.70
75380;HTU21D;65641;44.714;37.756;2023-06-10T06:34:29;29.61;44.61
75380;HTU21D;65641;44.714;37.756;2023-06-10T06:35:33;29.70;44.49
75380;HTU21D;65641;44.714;37.756;2023-06-10T06:36:37;29.72;44.36
75380;HTU21D;65641;44.714;37.756;2023-06-10T06:37:40;29.79;44.25
75380;HTU21D;65641;44.714;37.756;2023-06-10T06:39:01;29.85;44.15
75380;HTU21D;65641;44.714;37.756;2023-06-10T06:40:05;29.90;44.04